• Join FlightAware (Why Join?)
  • Login
  • US Flag 
12:20PM EDT


 

Airport Tracker/Info


-or-


 

Live Flight TrackerFlight Track Log ✈ N137TK ✈ 11-Oct-2013 ✈ KCTZ - KAPF

Flight Track Log - Related Links

Times and Time Zones

All times are in EDT time to prevent confusion due to time zone crossing. See the N137TK flight status page for this flight to view local times or setup timezone preferences in your user account.

Time Position Orientation Groundspeed Altitude Reporting Facility
EDT Latitude Longitude Course Direction KTS MPH feet Rate Location/Type
04:56PM 34.8964 -78.4814 215° Southwest 166 191 5,600  Level Washington Center
04:57PM 34.8539 -78.5153 213° Southwest 173 199 7,700 2,040 Climbing Washington Center
04:58PM 34.8114 -78.5467 211° Southwest 179 206 9,800 2,160 Climbing Washington Center
04:59PM 34.7644 -78.5853 214° Southwest 184 212 12,000 1,980 Climbing Washington Center
05:00PM 34.5569 -78.5434 215° Southwest  Level Estimated
05:00PM 34.7219 -78.6167 211° Southwest 194 223 13,800  Level Washington Center
05:01PM 34.6731 -78.6578 215° Southwest 194 223 15,600 1,560 Climbing Washington Center
05:03PM 34.5833 -78.7242 211° Southwest 205 236 18,400 1,440 Climbing Jacksonville Center
05:04PM 34.5386 -78.7642 216° Southwest 205 236 19,800 1,200 Climbing Jacksonville Center
05:05PM 34.5019 -78.7911 211° Southwest 205 236 20,900 1,260 Climbing Jacksonville Center
05:06PM 34.4514 -78.8386 218° Southwest 205 236 22,400 1,320 Climbing Jacksonville Center
05:07PM 34.4086 -78.8733 214° Southwest 200 230 23,600 1,200 Climbing Jacksonville Center
05:08PM 34.3639 -78.9081 213° Southwest 195 224 24,900 1,140 Climbing Jacksonville Center
05:09PM 34.3211 -78.9403 212° Southwest 190 219 25,900 540 Climbing Jacksonville Center
05:10PM 34.2722 -78.9803 214° Southwest 197 227 26,000  Climbing Jacksonville Center
05:11PM 34.2172 -79.0206 211° Southwest 217 250 26,000  Level Jacksonville Center
05:12PM 34.1603 -79.0656 213° Southwest 255 293 26,000  Level Jacksonville Center
05:13PM 34.0969 -79.1161 213° Southwest 270 311 26,000  Level Jacksonville Center
05:14PM 34.0339 -79.1639 212° Southwest 275 316 26,000  Level Jacksonville Center
05:15PM 33.9683 -79.2117 211° Southwest 275 316 26,000  Level Jacksonville Center
05:16PM 33.9072 -79.2594 213° Southwest 275 316 26,000  Level Jacksonville Center
05:17PM 33.8439 -79.3094 213° Southwest 275 316 26,000  Level Jacksonville Center
05:18PM 33.7786 -79.3569 211° Southwest 275 316 26,000  Level Jacksonville Center
05:19PM 33.7050 -79.4100 211° Southwest 275 316 26,000  Level Jacksonville Center
05:20PM 33.6558 -79.4519 215° Southwest 268 308 26,000  Level Jacksonville Center
05:21PM 33.5925 -79.4992 212° Southwest 268 308 26,000  Level Jacksonville Center
05:22PM 33.5272 -79.5489 212° Southwest 273 314 26,000  Level Jacksonville Center
05:23PM 33.4636 -79.5961 212° Southwest 273 314 26,000  Level Jacksonville Center
05:24PM 33.4003 -79.6433 212° Southwest 273 314 26,000  Level Jacksonville Center
05:25PM 33.3369 -79.6953 214° Southwest 273 314 26,000  Level Jacksonville Center
05:26PM 33.2733 -79.7400 210° Southwest 273 314 26,000  Level Jacksonville Center
05:27PM 33.2097 -79.7869 212° Southwest 273 314 26,000  Level Jacksonville Center
05:28PM 33.1461 -79.8361 213° Southwest 273 314 26,000  Level Jacksonville Center
05:29PM 33.0825 -79.8831 212° Southwest 273 314 26,000  Level Jacksonville Center
05:30PM 33.0192 -79.9322 213° Southwest 273 314 26,000  Level Jacksonville Center
05:31PM 32.9575 -79.9786 212° Southwest 273 314 26,000  Level Jacksonville Center
05:32PM 32.8939 -80.0253 212° Southwest 273 314 26,000  Level Jacksonville Center
05:33PM 32.8303 -80.0742 213° Southwest 273 314 26,000  Level Jacksonville Center
05:34PM 32.7667 -80.1208 212° Southwest 273 314 26,000  Level Jacksonville Center
05:35PM 32.6989 -80.1722 213° Southwest 273 314 26,000  Level Jacksonville Center
05:36PM 32.6372 -80.2183 212° Southwest 273 314 26,000  Level Jacksonville Center
05:37PM 32.5736 -80.2672 213° Southwest 273 314 26,000  Level Jacksonville Center
05:38PM 32.5119 -80.3108 211° Southwest 273 314 26,000  Level Jacksonville Center
05:39PM 32.4481 -80.3594 213° Southwest 273 314 26,000  Level Jacksonville Center
05:40PM 32.3842 -80.4056 211° Southwest 273 314 26,000  Level Jacksonville Center
05:41PM 32.3206 -80.4514 211° Southwest 266 306 26,000  Level Jacksonville Center
05:42PM 32.2544 -80.4975 211° Southwest 272 313 26,000  Level Jacksonville Center
05:43PM 32.1950 -80.5481 216° Southwest 271 312 26,000  Level Jacksonville Center
05:44PM 32.1331 -80.5914 211° Southwest 271 312 26,000  Level Jacksonville Center
05:45PM 32.0583 -80.6103 192° South 276 318 26,000  Level Jacksonville Center
05:46PM 31.9875 -80.6219 188° South 281 323 26,000  Level Jacksonville Center
05:47PM 31.9000 -80.6389 189° South 289 333 26,000  Level Jacksonville Center
05:48PM 31.8231 -80.6528 189° South 297 342 26,000  Level Jacksonville Center
05:49PM 31.7525 -80.6669 190° South 291 335 26,000  Level Jacksonville Center
05:50PM 31.6672 -80.6836 189° South 291 335 26,000  Level Jacksonville Center
05:51PM 31.5881 -80.7000 190° South 296 341 26,000  Level Jacksonville Center
05:52PM 31.5089 -80.7142 189° South 282 325 26,000  Level Jacksonville Center
05:53PM 31.4297 -80.7281 189° South 282 325 26,000  Level Jacksonville Center
05:54PM 31.3528 -80.7419 189° South 287 330 26,000  Level Jacksonville Center
05:55PM 31.2758 -80.7583 190° South 287 330 26,000  Level Jacksonville Center
05:56PM 31.1925 -80.7700 187° South 293 337 26,000  Level Jacksonville Center
05:57PM 31.1178 -80.7886 192° South 291 335 26,000  Level Jacksonville Center
05:58PM 31.0319 -80.7881 180° South 290 334 26,000  Level Jacksonville Center
05:59PM 30.9506 -80.7850 178° South 295 339 26,000  Level Jacksonville Center
06:00PM 30.8711 -80.7747 174° South 300 345 26,000  Level Jacksonville Center
06:01PM 30.7894 -80.7694 177° South 300 345 26,000  Level Jacksonville Center
06:02PM 30.7122 -80.7614 175° South 295 339 26,000  Level Jacksonville Center
06:03PM 30.6286 -80.7536 175° South 295 339 26,000  Level Jacksonville Center
06:04PM 30.5469 -80.7483 177° South 295 339 26,000  Level Jacksonville Center
06:05PM 30.4656 -80.7406 175° South 295 339 26,000  Level Jacksonville Center
06:06PM 30.3819 -80.7328 175° South 295 339 26,000  Level Jacksonville Center
06:07PM 30.3003 -80.7250 175° South 295 339 26,000  Level Jacksonville Center
06:08PM 30.2208 -80.7194 177° South 290 334 26,000  Level Jacksonville Center
06:09PM 30.1392 -80.7092 174° South 290 334 26,000  Level Jacksonville Center
06:10PM 30.0578 -80.7039 177° South 290 334 26,000  Level Jacksonville Center
06:11PM 29.9761 -80.6961 175° South 290 334 26,000  Level Jacksonville Center
06:12PM 29.8947 -80.6883 175° South 290 334 26,000  Level Jacksonville Center
06:13PM 29.8131 -80.6831 177° South 290 334 26,000  Level Jacksonville Center
06:16PM 29.5833 -80.6589 175° South 294 338 26,000  Level Miami Center
06:17PM 29.5022 -80.6539 177° South 294 338 26,000  Level Miami Center
06:18PM 29.4106 -80.6483 177° South 294 338 26,000  Level Miami Center
06:19PM 29.3294 -80.6383 174° South 294 338 26,000  Level Miami Center
06:20PM 29.2483 -80.6308 175° South 289 333 26,000  Level Miami Center
06:21PM 29.1650 -80.6256 177° South 295 339 26,000  Level Miami Center
06:22PM 29.0819 -80.6156 174° South 295 339 26,000  Level Miami Center
06:23PM 29.0006 -80.6103 177° South 288 331 26,000  Level Miami Center
06:24PM 28.9194 -80.6006 174° South 293 337 26,000  Level Miami Center
06:25PM 28.8489 -80.5958 177° South 293 337 26,000 -180 Level Miami Center
06:26PM 28.7656 -80.5883 175° South 293 337 25,700 -420 Descending Miami Center
06:27PM 28.6697 -80.5803 176° South 300 345 25,200 -540 Descending Miami Center
06:28PM 28.5867 -80.5703 174° South 306 352 24,700 -540 Descending Miami Center
06:29PM 28.4992 -80.5628 176° South 311 358 24,200 -600 Descending Miami Center
06:30PM 28.4200 -80.5556 175° South 311 358 23,600 -900 Descending Miami Center
06:31PM 28.3200 -80.5475 176° South 319 367 22,500 -1,080 Descending Miami Center
06:32PM 28.2286 -80.5375 174° South 332 382 21,500 -1,080 Descending Miami Center
06:33PM 28.1389 -80.5322 177° South 327 376 20,400 -1,080 Descending Miami Center
06:34PM 28.0589 -80.5578 196° South 303 349 19,400 -1,020 Descending Miami Center
06:35PM 27.9783 -80.6022 206° Southwest 309 356 18,400 -1,020 Descending Miami Center
06:36PM 27.9044 -80.6444 207° Southwest 308 354 17,400 -960 Descending Miami Center
06:37PM 27.8258 -80.6886 206° Southwest 308 354 16,500 -480 Descending Miami Center
06:38PM 27.7558 -80.7308 208° Southwest 308 354 16,500  Level Miami Center
06:39PM 27.6944 -80.7664 207° Southwest 296 341 16,500  Level Miami Center
06:40PM 27.6286 -80.8086 210° Southwest 283 326 16,500 -60 Level Miami Center
06:41PM 27.5542 -80.8528 208° Southwest 289 333 16,400 -60 Descending Miami Center
06:42PM 27.4886 -80.8903 207° Southwest 289 333 16,400  Level Miami Center
06:43PM 27.4206 -80.9347 210° Southwest 289 333 16,400  Level Miami Center
06:44PM 27.3525 -80.9744 207° Southwest 289 333 16,400  Level Miami Center
06:45PM 27.2847 -81.0117 206° Southwest 283 326 16,500  Climbing Miami Center
06:46PM 27.2144 -81.0536 208° Southwest 288 331 16,500  Level Miami Center
06:47PM 27.1381 -81.0997 208° Southwest 288 331 16,500 -300 Level Miami Center
06:48PM 27.0678 -81.1464 211° Southwest 295 339 15,900 -900 Descending Miami Center
06:49PM 26.9994 -81.1950 212° Southwest 295 339 14,800 -1,140 Descending Miami Center
06:50PM 26.9378 -81.2392 213° Southwest 295 339 13,700 -1,200 Descending Miami Center
06:51PM 26.8694 -81.2881 213° Southwest 295 339 12,500 -1,200 Descending Miami Center
06:52PM 26.8011 -81.3342 211° Southwest 295 339 11,400 -1,140 Descending Miami Center
06:53PM 26.7350 -81.3806 212° Southwest 290 334 10,300 -1,080 Descending Miami Center
06:54PM 26.6689 -81.4267 212° Southwest 290 334 9,300 -1,080 Descending Miami Center
06:55PM 26.6028 -81.4683 209° Southwest 283 326 8,200 -1,140 Descending Miami Center
06:56PM 26.5386 -81.5144 213° Southwest 283 326 7,100 -1,080 Descending Miami Center
06:57PM 26.4725 -81.5583 211° Southwest 283 326 6,100 -1,020 Descending Miami Center
06:58PM 26.4125 -81.6104 204° Southwest  Level FlightAware Approximate
07:05PM 26.1500 -81.7667 204° Southwest  Level FlightAware Approximate
07:06PM 26.1524 -81.7756 204° Southwest  Level Estimated
07:07PM 26.1524 -81.7756 204° Southwest  Level Estimated
07:08PM 26.1524 -81.7756 204° Southwest  Level Estimated
07:09PM 26.1524 -81.7756 204° Southwest  Level Estimated
07:10PM 26.1524 -81.7756 204° Southwest  Level Estimated
07:11PM 26.1524 -81.7756 204° Southwest  Level Estimated
07:12PM 26.1524 -81.7756 204° Southwest  Level Estimated